• Join FlightAware (Why Join?)
  • Login
  • US Flag 
04:25AM EDT


 

Airport Tracker/Info


-or-


 

Live Flight TrackerFlight Track Log ✈ N102WY ✈ 17-May-2013 ✈ KCYS - KGCC

Flight Track Log - Related Links

Times and Time Zones

All times are in EDT time to prevent confusion due to time zone crossing. See the N102WY flight status page for this flight to view local times or setup timezone preferences in your user account.

Time Position Orientation Groundspeed Altitude Reporting Facility
EDT Latitude Longitude Course Direction KTS MPH feet Rate Location/Type
10:53AM 41.1667 -104.8419 351° North 177 204 8,000  Level Denver Center
10:54AM 41.2258 -104.8539 351° North 224 258 11,200 3,000 Climbing Denver Center
10:55AM 41.2964 -104.8706 350° North 225 259 14,300 2,520 Climbing Denver Center
10:56AM 41.3675 -104.8800 354° North 250 288 16,500 1,980 Climbing Denver Center
10:57AM 41.4472 -104.8983 350° North 283 326 18,500 2,040 Climbing Denver Center
10:58AM 41.5508 -104.9203 351° North 318 366 20,800 1,860 Climbing Denver Center
10:59AM 41.6442 -104.9406 351° North 340 391 22,800 1,980 Climbing Denver Center
11:01AM 41.7728 -104.9650 352° North 361 415 25,300 2,220 Climbing Denver Center
11:02AM 41.8850 -104.9914 350° North 366 421 27,500 1,920 Climbing Denver Center
11:03AM 41.9833 -105.0114 351° North 370 426 29,300 1,800 Climbing Denver Center
11:04AM 42.0994 -105.0372 351° North 376 433 31,300 1,260 Climbing Denver Center
11:05AM 42.1964 -105.0594 350° North 372 428 32,000 300 Climbing Denver Center
11:06AM 42.2939 -105.0803 351° North 369 425 32,000  Level Denver Center
11:07AM 42.4092 -105.1047 351° North 371 427 32,000  Level Denver Center
11:08AM 42.5103 -105.1272 351° North 380 437 32,000  Level Denver Center
11:09AM 42.6275 -105.1539 350° North 379 436 32,000  Level Denver Center
11:10AM 42.7300 -105.1767 351° North 384 442 32,000  Level Denver Center
11:11AM 42.8486 -105.2006 352° North 385 443 32,000  Level Denver Center
11:12AM 42.9497 -105.2225 351° North 383 441 32,000 -360 Level Denver Center
11:13AM 43.0503 -105.2453 351° North 382 440 31,300 -900 Descending Denver Center
11:14AM 43.1667 -105.2714 351° North 380 437 30,200 -1,020 Descending Denver Center
11:15AM 43.2658 -105.2928 351° North 378 435 29,300 -1,020 Descending Denver Center
11:16AM 43.3828 -105.3189 351° North 379 436 28,200 -1,020 Descending Denver Center
11:17AM 43.4825 -105.3397 351° North 379 436 27,200 -1,500 Descending Denver Center
11:18AM 43.5986 -105.3658 351° North 379 436 25,100 -2,280 Descending Denver Center
11:19AM 43.7008 -105.3911 350° North 386 444 22,500 -2,520 Descending Denver Center
11:20AM 43.8186 -105.4175 351° North 385 443 19,500 -2,820 Descending Denver Center
11:21AM 43.9294 -105.4425 351° North 372 428 16,200 -3,120 Descending Denver Center
11:22AM 44.0303 -105.4639 351° North 343 395 13,100 -2,280 Descending Denver Center
11:23AM 44.1128 -105.4842 350° North 326 375 11,600 -1,800 Descending Denver Center
11:24AM 44.2003 -105.5022 352° North 312 359 9,400 -1,920 Descending Denver Center
11:26AM 44.2886 -105.5203 352° North 307 353 7,700 -1,680 Descending Denver Center